Time;durP1;ratioP1;P1;durP2;ratioP2;P2;SDS_P1;SDS_P2;PMS_P1;PMS_P2;Temp;Humidity;BMP_temperature;BMP_pressure;BME280_temperature;BME280_humidity;BME280_pressure;Samples;Min_cycle;Max_cycle;Signal;HPM_P1;HPM_P2
2023/04/07 00:00:25;;;;;;;;;;;;;;;;;;5152184;27;1925;-38
2023/04/07 00:02:53;;;;;;;;;;;;;;;;;;5152308;27;2159;-46
2023/04/07 00:05:20;;;;;;;;;;;;;;;;;;5152222;27;1706;-38
2023/04/07 00:07:48;;;;;;;;;;;;;;;;;;5152307;27;1972;-37
2023/04/07 00:10:22;;;;;;;;;;;;;;;;;;5154504;27;1880;-38
2023/04/07 00:12:50;;;;;;;;;;;;;;;;;;5156226;27;1900;-38
2023/04/07 00:15:17;;;;;;;;;;;;;;;;;;5156233;27;1600;-38
2023/04/07 00:17:45;;;;;;;;;;;;;;;;;;5151191;27;1903;-38
2023/04/07 00:20:12;;;;;;;;;;;;;;;;;;5135568;27;1909;-43
2023/04/07 00:22:39;;;;;;;;;;;;;;;;;;5135410;27;1754;-44
2023/04/07 00:25:07;;;;;;;;;;;;;;;;;;5135163;27;1959;-44
2023/04/07 00:27:34;;;;;;;;;;;;;;;;;;5134993;27;1800;-39
2023/04/07 00:30:03;;;;;;;;;;;;;;;;;;5135256;27;1766;-38
2023/04/07 00:32:30;;;;;;;;;;;;;;;;;;5135412;27;2024;-39
2023/04/07 00:34:58;;;;;;;;;;;;;;;;;;5116516;27;2369;-46
2023/04/07 00:37:28;;;;;;;;;;;;;;;;;;5135301;27;1974;-37
2023/04/07 00:39:56;;;;;;;;;;;;;;;;;;5116459;27;1907;-39
2023/04/07 00:42:24;;;;;;;;;;;;;;;;;;5134960;27;2255;-53
2023/04/07 00:44:51;;;;;;;;;;;;;;;;;;5116906;27;2152;-44
2023/04/07 00:47:19;;;;;;;;;;;;;;;;;;5134744;27;1997;-48
2023/04/07 00:49:47;;;;;;;;;;;;;;;;;;5134828;27;1883;-38
2023/04/07 00:52:15;;;;;;;;;;;;;;;;;;5134869;27;1821;-38
2023/04/07 00:54:43;;;;;;;;;;;;;;;;;;5116465;27;1951;-37
2023/04/07 00:57:10;;;;;;;;;;;;;;;;;;5132758;27;1701;-39
2023/04/07 00:59:38;;;;;;;;;;;;;;;;;;5136688;27;1913;-39
2023/04/07 01:02:31;;;;;;;;;;;;;;;;;;5136880;27;1692;-48
2023/04/07 01:05:08;;;;;;;;;;;;;;;;;;5138908;27;2093;-37
2023/04/07 01:07:54;;;;;;;;;;;;;;;;;;5155090;27;2071;-38
2023/04/07 01:10:27;;;;;;;;;;;;;;;;;;5155238;27;1851;-38
2023/04/07 01:13:01;;;;;;;;;;;;;;;;;;5120449;27;1763;-43
2023/04/07 01:15:30;;;;;;;;;;;;;;;;;;5154832;27;1965;-38
2023/04/07 01:18:04;;;;;;;;;;;;;;;;;;5136540;27;1994;-39
2023/04/07 01:20:32;;;;;;;;;;;;;;;;;;5136197;27;1483;-52
2023/04/07 01:23:03;;;;;;;;;;;;;;;;;;5136408;27;1792;-40
2023/04/07 01:25:30;;;;;;;;;;;;;;;;;;5154777;27;2077;-45
2023/04/07 01:28:01;;;;;;;;;;;;;;;;;;5154771;27;1538;-38
2023/04/07 01:30:31;;;;;;;;;;;;;;;;;;5136058;27;1848;-46
2023/04/07 01:32:59;;;;;;;;;;;;;;;;;;5154797;27;1592;-57
2023/04/07 01:35:29;;;;;;;;;;;;;;;;;;5154367;27;1659;-38
2023/04/07 01:37:59;;;;;;;;;;;;;;;;;;5154816;27;1934;-39
2023/04/07 01:40:30;;;;;;;;;;;;;;;;;;5154307;27;1913;-41
2023/04/07 01:42:58;;;;;;;;;;;;;;;;;;5154564;27;1716;-40
2023/04/07 01:45:26;;;;;;;;;;;;;;;;;;5154504;27;1803;-38
2023/04/07 01:47:54;;;;;;;;;;;;;;;;;;5135566;27;1907;-38
2023/04/07 01:50:22;;;;;;;;;;;;;;;;;;5154894;27;2039;-39
2023/04/07 01:52:50;;;;;;;;;;;;;;;;;;5136009;27;1682;-38
2023/04/07 01:55:17;;;;;;;;;;;;;;;;;;5139922;27;2216;-39
2023/04/07 01:57:57;;;;;;;;;;;;;;;;;;5115037;27;2138;-38
2023/04/07 02:00:25;;;;;;;;;;;;;;;;;;5114834;27;2077;-39
2023/04/07 02:02:55;;;;;;;;;;;;;;;;;;5115006;27;1811;-38
2023/04/07 02:05:23;;;;;;;;;;;;;;;;;;5114791;27;2673;-39
2023/04/07 02:07:58;;;;;;;;;;;;;;;;;;5115006;27;2002;-38
2023/04/07 02:10:28;;;;;;;;;;;;;;;;;;5114744;27;2085;-39
2023/04/07 02:12:59;;;;;;;;;;;;;;;;;;5133227;27;1666;-40
2023/04/07 02:15:27;;;;;;;;;;;;;;;;;;5114792;27;1900;-39
2023/04/07 02:17:57;;;;;;;;;;;;;;;;;;5114663;27;1488;-40
2023/04/07 02:20:25;;;;;;;;;;;;;;;;;;5114710;27;2159;-38
2023/04/07 02:22:56;;;;;;;;;;;;;;;;;;5133106;27;1914;-38
2023/04/07 02:25:24;;;;;;;;;;;;;;;;;;5114610;27;1944;-39
2023/04/07 02:27:53;;;;;;;;;;;;;;;;;;5132829;27;2065;-38
2023/04/07 02:30:20;;;;;;;;;;;;;;;;;;5114556;27;1621;-38
2023/04/07 02:32:47;;;;;;;;;;;;;;;;;;5113915;27;2016;-39
2023/04/07 02:35:15;;;;;;;;;;;;;;;;;;5114291;27;2001;-38
2023/04/07 02:37:43;;;;;;;;;;;;;;;;;;5132620;27;1357;-38
2023/04/07 02:40:11;;;;;;;;;;;;;;;;;;5097720;27;2056;-40
2023/04/07 02:42:38;;;;;;;;;;;;;;;;;;5132715;27;1456;-39
2023/04/07 02:45:06;;;;;;;;;;;;;;;;;;5132411;27;1843;-39
2023/04/07 02:47:33;;;;;;;;;;;;;;;;;;5132493;27;1974;-38
2023/04/07 02:50:01;;;;;;;;;;;;;;;;;;5131088;27;2121;-38
2023/04/07 02:52:28;;;;;;;;;;;;;;;;;;5132448;27;2480;-40
2023/04/07 02:54:55;;;;;;;;;;;;;;;;;;5114002;27;2097;-38
2023/04/07 02:57:25;;;;;;;;;;;;;;;;;;5132424;27;1895;-39
2023/04/07 02:59:57;;;;;;;;;;;;;;;;;;5152987;27;2054;-39
2023/04/07 03:02:35;;;;;;;;;;;;;;;;;;5134191;27;1612;-38
2023/04/07 03:05:03;;;;;;;;;;;;;;;;;;5153179;27;2032;-38
2023/04/07 03:07:30;;;;;;;;;;;;;;;;;;5152898;27;1559;-43
2023/04/07 03:09:59;;;;;;;;;;;;;;;;;;5134114;27;1921;-38
2023/04/07 03:12:27;;;;;;;;;;;;;;;;;;5152970;27;2133;-39
2023/04/07 03:14:54;;;;;;;;;;;;;;;;;;5152798;27;2072;-39
2023/04/07 03:17:23;;;;;;;;;;;;;;;;;;5134267;27;2221;-39
2023/04/07 03:19:50;;;;;;;;;;;;;;;;;;5152585;27;2006;-39
2023/04/07 03:22:18;;;;;;;;;;;;;;;;;;5152797;27;1572;-38
2023/04/07 03:24:50;;;;;;;;;;;;;;;;;;5134131;27;1954;-38
2023/04/07 03:27:19;;;;;;;;;;;;;;;;;;5129801;27;2070;-38
2023/04/07 03:29:50;;;;;;;;;;;;;;;;;;5113273;27;2302;-38
2023/04/07 03:32:18;;;;;;;;;;;;;;;;;;5113460;27;2035;-39
2023/04/07 03:34:45;;;;;;;;;;;;;;;;;;5113384;28;1973;-38
2023/04/07 03:37:13;;;;;;;;;;;;;;;;;;5113230;28;1638;-40
2023/04/07 03:39:41;;;;;;;;;;;;;;;;;;5113389;28;1909;-39
2023/04/07 03:42:23;;;;;;;;;;;;;;;;;;5113616;28;1887;-39
2023/04/07 03:44:57;;;;;;;;;;;;;;;;;;5115380;27;2295;-38
2023/04/07 03:47:24;;;;;;;;;;;;;;;;;;5136106;27;1295;-38
2023/04/07 03:49:56;;;;;;;;;;;;;;;;;;5117566;27;2013;-39
2023/04/07 03:52:23;;;;;;;;;;;;;;;;;;5117646;27;1388;-39
2023/04/07 03:54:58;;;;;;;;;;;;;;;;;;5117479;27;2006;-40
2023/04/07 03:57:30;;;;;;;;;;;;;;;;;;5133261;27;2361;-39
2023/04/07 03:59:57;;;;;;;;;;;;;;;;;;5135870;27;2175;-39
2023/04/07 04:02:24;;;;;;;;;;;;;;;;;;5136233;27;2011;-40
2023/04/07 04:04:56;;;;;;;;;;;;;;;;;;5116958;27;1664;-39
2023/04/07 04:07:25;;;;;;;;;;;;;;;;;;5117289;27;1828;-38
2023/04/07 04:09:55;;;;;;;;;;;;;;;;;;5135788;27;1752;-39
2023/04/07 04:12:23;;;;;;;;;;;;;;;;;;5135487;27;1796;-39
2023/04/07 04:15:01;;;;;;;;;;;;;;;;;;5117043;27;2009;-43
2023/04/07 04:17:30;;;;;;;;;;;;;;;;;;5117073;27;2314;-42
2023/04/07 04:19:58;;;;;;;;;;;;;;;;;;5117007;27;1971;-49
2023/04/07 04:22:36;;;;;;;;;;;;;;;;;;5116885;27;1913;-48
2023/04/07 04:25:06;;;;;;;;;;;;;;;;;;5135401;27;2470;-43
2023/04/07 04:27:33;;;;;;;;;;;;;;;;;;5116827;27;1508;-40
2023/04/07 04:30:06;;;;;;;;;;;;;;;;;;5116583;27;1977;-41
2023/04/07 04:32:39;;;;;;;;;;;;;;;;;;5116706;27;2172;-42
2023/04/07 04:35:08;;;;;;;;;;;;;;;;;;5116567;27;2205;-44
2023/04/07 04:37:43;;;;;;;;;;;;;;;;;;5116613;27;2020;-48
2023/04/07 04:40:13;;;;;;;;;;;;;;;;;;5116344;27;1986;-40
2023/04/07 04:42:43;;;;;;;;;;;;;;;;;;5116584;27;1643;-43
2023/04/07 04:45:12;;;;;;;;;;;;;;;;;;5116472;27;1869;-48
2023/04/07 04:47:45;;;;;;;;;;;;;;;;;;5134535;27;1996;-45
2023/04/07 04:50:12;;;;;;;;;;;;;;;;;;5116135;27;1879;-41
2023/04/07 04:52:43;;;;;;;;;;;;;;;;;;5116451;27;2154;-42
2023/04/07 04:55:18;;;;;;;;;;;;;;;;;;5115637;27;2068;-45
2023/04/07 04:57:46;;;;;;;;;;;;;;;;;;5116329;27;1605;-40
2023/04/07 05:00:19;;;;;;;;;;;;;;;;;;5116057;27;1945;-43
2023/04/07 05:02:50;;;;;;;;;;;;;;;;;;5116218;27;1775;-42
2023/04/07 05:05:18;;;;;;;;;;;;;;;;;;5134649;27;1592;-41
2023/04/07 05:07:52;;;;;;;;;;;;;;;;;;5116130;27;2065;-42
2023/04/07 05:10:21;;;;;;;;;;;;;;;;;;5116076;27;2156;-38
2023/04/07 05:12:50;;;;;;;;;;;;;;;;;;5115538;27;2313;-40
2023/04/07 05:15:17;;;;;;;;;;;;;;;;;;5134463;27;1579;-40
2023/04/07 05:17:49;;;;;;;;;;;;;;;;;;5115997;27;2245;-47
2023/04/07 05:20:22;;;;;;;;;;;;;;;;;;5150194;27;1921;-40
2023/04/07 05:22:49;;;;;;;;;;;;;;;;;;5115797;27;1866;-40
2023/04/07 05:25:20;;;;;;;;;;;;;;;;;;5115658;27;1962;-39
2023/04/07 05:27:51;;;;;;;;;;;;;;;;;;5124017;27;1756;-39
2023/04/07 05:30:19;;;;;;;;;;;;;;;;;;5135934;27;2312;-45
2023/04/07 05:32:46;;;;;;;;;;;;;;;;;;5136262;27;2288;-44
2023/04/07 05:35:25;;;;;;;;;;;;;;;;;;5136131;27;1933;-43
2023/04/07 05:37:55;;;;;;;;;;;;;;;;;;5136033;27;1768;-45
2023/04/07 05:40:23;;;;;;;;;;;;;;;;;;5135830;27;1909;-45
2023/04/07 05:42:50;;;;;;;;;;;;;;;;;;5154821;27;2018;-40
2023/04/07 05:45:17;;;;;;;;;;;;;;;;;;5154746;27;1565;-40
2023/04/07 05:47:49;;;;;;;;;;;;;;;;;;5135614;27;2111;-43
2023/04/07 05:50:23;;;;;;;;;;;;;;;;;;5135695;27;1965;-52
2023/04/07 05:52:51;;;;;;;;;;;;;;;;;;5135719;27;2160;-42
2023/04/07 05:55:23;;;;;;;;;;;;;;;;;;5134261;27;1684;-47
2023/04/07 05:57:51;;;;;;;;;;;;;;;;;;5115304;27;2263;-49
2023/04/07 06:00:21;;;;;;;;;;;;;;;;;;5115056;27;2113;-46
2023/04/07 06:03:00;;;;;;;;;;;;;;;;;;5133325;27;1991;-42
2023/04/07 06:05:33;;;;;;;;;;;;;;;;;;5115288;27;2084;-45
2023/04/07 06:08:01;;;;;;;;;;;;;;;;;;5114131;27;2210;-41
2023/04/07 06:10:28;;;;;;;;;;;;;;;;;;5133210;27;1979;-40
2023/04/07 06:12:56;;;;;;;;;;;;;;;;;;5114903;27;1803;-44
2023/04/07 06:15:24;;;;;;;;;;;;;;;;;;5133227;27;1747;-41
2023/04/07 06:17:51;;;;;;;;;;;;;;;;;;5133266;27;1892;-46
2023/04/07 06:20:21;;;;;;;;;;;;;;;;;;5133184;27;1901;-49
2023/04/07 06:22:50;;;;;;;;;;;;;;;;;;5132984;27;1999;-40
2023/04/07 06:25:17;;;;;;;;;;;;;;;;;;5114671;27;1583;-45
2023/04/07 06:27:45;;;;;;;;;;;;;;;;;;5132667;27;1835;-39
2023/04/07 06:30:12;;;;;;;;;;;;;;;;;;5114399;27;2319;-45
2023/04/07 06:32:39;;;;;;;;;;;;;;;;;;5133057;27;1469;-47
2023/04/07 06:35:07;;;;;;;;;;;;;;;;;;5132862;27;2073;-48
2023/04/07 06:37:34;;;;;;;;;;;;;;;;;;5133661;27;1816;-45
2023/04/07 06:40:01;;;;;;;;;;;;;;;;;;5132637;27;1913;-43
2023/04/07 06:42:29;;;;;;;;;;;;;;;;;;5132561;27;2122;-45
2023/04/07 06:45:05;;;;;;;;;;;;;;;;;;5114394;27;2043;-47
2023/04/07 06:47:33;;;;;;;;;;;;;;;;;;5132485;27;1732;-50
2023/04/07 06:50:00;;;;;;;;;;;;;;;;;;5132773;27;1442;-45
2023/04/07 06:52:28;;;;;;;;;;;;;;;;;;5132510;27;1760;-45
2023/04/07 06:54:58;;;;;;;;;;;;;;;;;;5132338;27;1918;-47
2023/04/07 06:57:26;;;;;;;;;;;;;;;;;;5132415;27;2053;-42
2023/04/07 06:59:53;;;;;;;;;;;;;;;;;;5132426;27;2045;-45
2023/04/07 07:02:20;;;;;;;;;;;;;;;;;;5132364;27;1823;-48
2023/04/07 07:04:48;;;;;;;;;;;;;;;;;;5132400;27;1781;-52
2023/04/07 07:07:15;;;;;;;;;;;;;;;;;;5132459;27;1906;-41
2023/04/07 07:09:42;;;;;;;;;;;;;;;;;;5132012;27;2004;-45
2023/04/07 07:12:10;;;;;;;;;;;;;;;;;;5132255;27;1761;-43
2023/04/07 07:14:37;;;;;;;;;;;;;;;;;;5132456;27;2074;-44
2023/04/07 07:17:04;;;;;;;;;;;;;;;;;;5132134;27;2081;-44
2023/04/07 07:19:31;;;;;;;;;;;;;;;;;;5131999;27;1821;-54
2023/04/07 07:21:58;;;;;;;;;;;;;;;;;;5131908;27;2121;-42
2023/04/07 07:24:28;;;;;;;;;;;;;;;;;;5132139;27;1631;-44
2023/04/07 07:26:56;;;;;;;;;;;;;;;;;;5133575;27;2152;-46
2023/04/07 07:29:23;;;;;;;;;;;;;;;;;;5132164;27;1641;-44
2023/04/07 07:31:50;;;;;;;;;;;;;;;;;;5132170;27;2050;-50
2023/04/07 07:34:18;;;;;;;;;;;;;;;;;;5131825;27;2103;-41
2023/04/07 07:36:45;;;;;;;;;;;;;;;;;;5131909;27;1962;-44
2023/04/07 07:39:13;;;;;;;;;;;;;;;;;;5133114;27;1897;-51
2023/04/07 07:41:40;;;;;;;;;;;;;;;;;;5152666;27;1977;-51
2023/04/07 07:44:08;;;;;;;;;;;;;;;;;;5152546;27;1927;-54
2023/04/07 07:46:35;;;;;;;;;;;;;;;;;;5152546;27;2127;-40
2023/04/07 07:49:04;;;;;;;;;;;;;;;;;;5152526;27;1567;-41
2023/04/07 07:51:32;;;;;;;;;;;;;;;;;;5152438;27;1642;-46
2023/04/07 07:53:59;;;;;;;;;;;;;;;;;;5152586;27;1446;-53
2023/04/07 07:56:27;;;;;;;;;;;;;;;;;;5141856;27;1930;-45
2023/04/07 07:58:54;;;;;;;;;;;;;;;;;;5131624;28;2103;-42
2023/04/07 08:01:23;;;;;;;;;;;;;;;;;;5131645;28;1977;-51
2023/04/07 08:03:50;;;;;;;;;;;;;;;;;;5131611;28;2208;-43
2023/04/07 08:06:18;;;;;;;;;;;;;;;;;;5131565;28;1994;-56
2023/04/07 08:08:45;;;;;;;;;;;;;;;;;;5131639;28;1944;-46
2023/04/07 08:11:13;;;;;;;;;;;;;;;;;;5131835;27;2102;-44
2023/04/07 08:13:44;;;;;;;;;;;;;;;;;;5131848;28;1952;-41
2023/04/07 08:16:11;;;;;;;;;;;;;;;;;;5144271;27;2270;-46
2023/04/07 08:18:39;;;;;;;;;;;;;;;;;;5152218;27;2108;-45
2023/04/07 08:21:06;;;;;;;;;;;;;;;;;;5152016;27;2100;-43
2023/04/07 08:23:33;;;;;;;;;;;;;;;;;;5152098;27;1832;-49
2023/04/07 08:26:00;;;;;;;;;;;;;;;;;;5152307;27;1982;-42
2023/04/07 08:28:28;;;;;;;;;;;;;;;;;;5152110;27;2065;-44
2023/04/07 08:30:55;;;;;;;;;;;;;;;;;;5153806;27;1782;-46
2023/04/07 08:33:23;;;;;;;;;;;;;;;;;;5155990;27;1939;-57
2023/04/07 08:35:50;;;;;;;;;;;;;;;;;;5137535;27;2100;-49
2023/04/07 08:38:19;;;;;;;;;;;;;;;;;;5156012;27;1796;-57
2023/04/07 08:40:48;;;;;;;;;;;;;;;;;;5155545;27;1906;-41
2023/04/07 08:43:16;;;;;;;;;;;;;;;;;;5154146;27;1703;-51
2023/04/07 08:45:45;;;;;;;;;;;;;;;;;;5154431;27;1582;-52
2023/04/07 08:48:16;;;;;;;;;;;;;;;;;;5154174;27;1586;-56
2023/04/07 08:50:44;;;;;;;;;;;;;;;;;;5154114;27;1726;-49
2023/04/07 08:53:12;;;;;;;;;;;;;;;;;;5153848;27;1886;-49
2023/04/07 08:55:40;;;;;;;;;;;;;;;;;;5149978;27;1932;-47
2023/04/07 08:58:11;;;;;;;;;;;;;;;;;;5133132;27;1807;-41
2023/04/07 09:00:40;;;;;;;;;;;;;;;;;;5133107;27;1907;-44
2023/04/07 09:03:08;;;;;;;;;;;;;;;;;;5133229;27;1553;-40
2023/04/07 09:05:38;;;;;;;;;;;;;;;;;;5133153;27;1937;-42
2023/04/07 09:08:06;;;;;;;;;;;;;;;;;;5133435;27;1525;-48
2023/04/07 09:10:35;;;;;;;;;;;;;;;;;;5132989;27;1907;-44
2023/04/07 09:13:03;;;;;;;;;;;;;;;;;;5133161;27;1985;-41
2023/04/07 09:15:33;;;;;;;;;;;;;;;;;;5133237;27;1498;-43
2023/04/07 09:18:01;;;;;;;;;;;;;;;;;;5132886;27;2021;-48
2023/04/07 09:20:48;;;;;;;;;;;;;;;;;;5132893;27;1906;-43
2023/04/07 09:23:26;;;;;;;;;;;;;;;;;;5132905;27;1856;-50
2023/04/07 09:25:53;;;;;;;;;;;;;;;;;;5114152;27;1824;-41
2023/04/07 09:28:21;;;;;;;;;;;;;;;;;;5132765;27;1913;-40
2023/04/07 09:30:53;;;;;;;;;;;;;;;;;;5114685;27;1917;-41
2023/04/07 09:33:27;;;;;;;;;;;;;;;;;;5132919;27;1913;-50
2023/04/07 09:35:55;;;;;;;;;;;;;;;;;;5133454;27;1790;-40
2023/04/07 09:38:22;;;;;;;;;;;;;;;;;;5134111;27;2096;-53
2023/04/07 09:40:49;;;;;;;;;;;;;;;;;;5134251;27;2268;-39
2023/04/07 09:43:17;;;;;;;;;;;;;;;;;;5133993;27;1885;-55
2023/04/07 09:45:45;;;;;;;;;;;;;;;;;;5134280;27;1798;-39
2023/04/07 09:48:19;;;;;;;;;;;;;;;;;;5133812;27;2132;-51
2023/04/07 09:50:50;;;;;;;;;;;;;;;;;;5133812;27;1878;-53
2023/04/07 09:53:22;;;;;;;;;;;;;;;;;;5133891;27;1481;-40
2023/04/07 09:55:49;;;;;;;;;;;;;;;;;;5139056;27;2296;-52
2023/04/07 09:58:17;;;;;;;;;;;;;;;;;;5154539;27;1905;-41
2023/04/07 10:00:45;;;;;;;;;;;;;;;;;;5154223;27;1906;-53
2023/04/07 10:03:12;;;;;;;;;;;;;;;;;;5154248;27;1987;-50
2023/04/07 10:05:41;;;;;;;;;;;;;;;;;;5154196;27;2109;-52
2023/04/07 10:08:08;;;;;;;;;;;;;;;;;;5154263;27;2234;-50
2023/04/07 10:10:40;;;;;;;;;;;;;;;;;;5154216;27;1918;-47
2023/04/07 10:13:07;;;;;;;;;;;;;;;;;;5153881;27;1782;-49
2023/04/07 10:15:35;;;;;;;;;;;;;;;;;;5154209;27;2000;-39
2023/04/07 10:18:03;;;;;;;;;;;;;;;;;;5154225;27;1823;-40
2023/04/07 10:20:31;;;;;;;;;;;;;;;;;;5154030;27;1976;-54
2023/04/07 10:23:03;;;;;;;;;;;;;;;;;;5153962;27;1794;-46
2023/04/07 10:25:31;;;;;;;;;;;;;;;;;;5153389;27;1943;-40
2023/04/07 10:27:59;;;;;;;;;;;;;;;;;;5153935;27;1977;-40
2023/04/07 10:30:28;;;;;;;;;;;;;;;;;;5137443;27;1806;-43
2023/04/07 10:32:56;;;;;;;;;;;;;;;;;;5133142;27;1667;-39
2023/04/07 10:35:24;;;;;;;;;;;;;;;;;;5133570;27;1733;-39
2023/04/07 10:38:04;;;;;;;;;;;;;;;;;;5121872;27;2103;-48
2023/04/07 10:40:32;;;;;;;;;;;;;;;;;;5132885;27;1973;-39
2023/04/07 10:43:00;;;;;;;;;;;;;;;;;;5132662;27;1926;-43
2023/04/07 10:45:47;;;;;;;;;;;;;;;;;;5132752;27;1783;-39
2023/04/07 10:48:15;;;;;;;;;;;;;;;;;;5132387;27;1704;-47
2023/04/07 10:51:11;;;;;;;;;;;;;;;;;;5132723;27;1485;-42
2023/04/07 10:53:58;;;;;;;;;;;;;;;;;;5132238;27;1627;-39
2023/04/07 10:56:26;;;;;;;;;;;;;;;;;;5132881;27;1949;-39
2023/04/07 10:59:26;;;;;;;;;;;;;;;;;;5132799;27;1643;-40
2023/04/07 11:02:15;;;;;;;;;;;;;;;;;;5109263;27;1910;-39
2023/04/07 11:04:44;;;;;;;;;;;;;;;;;;5132394;27;2081;-39
2023/04/07 11:07:12;;;;;;;;;;;;;;;;;;5131870;27;1958;-46
2023/04/07 11:09:40;;;;;;;;;;;;;;;;;;5132388;27;2102;-39
2023/04/07 11:12:08;;;;;;;;;;;;;;;;;;5132483;27;2262;-40
2023/04/07 11:14:39;;;;;;;;;;;;;;;;;;5132288;27;1994;-43
2023/04/07 11:17:13;;;;;;;;;;;;;;;;;;5132263;27;1985;-40
2023/04/07 11:19:51;;;;;;;;;;;;;;;;;;5131913;27;1825;-39
2023/04/07 11:22:18;;;;;;;;;;;;;;;;;;5132206;27;1981;-45
2023/04/07 11:24:49;;;;;;;;;;;;;;;;;;5132290;27;1958;-39
2023/04/07 11:27:16;;;;;;;;;;;;;;;;;;5132045;27;2132;-39
2023/04/07 11:29:44;;;;;;;;;;;;;;;;;;5131891;27;1497;-40
2023/04/07 11:32:12;;;;;;;;;;;;;;;;;;5131479;27;1879;-41
2023/04/07 11:34:39;;;;;;;;;;;;;;;;;;5132207;27;2188;-41
2023/04/07 11:37:22;;;;;;;;;;;;;;;;;;5131967;27;1821;-41
2023/04/07 11:39:53;;;;;;;;;;;;;;;;;;5132017;27;2112;-41
2023/04/07 11:42:30;;;;;;;;;;;;;;;;;;5131488;28;1910;-38
2023/04/07 11:44:58;;;;;;;;;;;;;;;;;;5132115;28;1770;-38
2023/04/07 11:47:35;;;;;;;;;;;;;;;;;;5131941;28;1800;-39
2023/04/07 11:50:02;;;;;;;;;;;;;;;;;;5131908;28;1941;-42
2023/04/07 11:52:42;;;;;;;;;;;;;;;;;;5131890;28;2089;-39
2023/04/07 11:55:16;;;;;;;;;;;;;;;;;;5131724;28;1978;-39
2023/04/07 11:57:44;;;;;;;;;;;;;;;;;;5131641;28;1947;-43
2023/04/07 12:00:14;;;;;;;;;;;;;;;;;;5131797;28;2163;-39
2023/04/07 12:02:42;;;;;;;;;;;;;;;;;;5131745;28;1902;-47
2023/04/07 12:05:09;;;;;;;;;;;;;;;;;;5132037;27;1958;-43
2023/04/07 12:07:38;;;;;;;;;;;;;;;;;;5135673;27;1695;-42
2023/04/07 12:10:18;;;;;;;;;;;;;;;;;;5135649;27;1655;-44
2023/04/07 12:12:46;;;;;;;;;;;;;;;;;;5135809;27;1404;-41
2023/04/07 12:15:14;;;;;;;;;;;;;;;;;;5135465;27;2234;-50
2023/04/07 12:17:46;;;;;;;;;;;;;;;;;;5135185;27;1468;-50
2023/04/07 12:20:14;;;;;;;;;;;;;;;;;;5135637;27;2440;-45
2023/04/07 12:22:42;;;;;;;;;;;;;;;;;;5135230;27;1976;-54
2023/04/07 12:25:10;;;;;;;;;;;;;;;;;;5135405;27;1722;-51
2023/04/07 12:27:38;;;;;;;;;;;;;;;;;;5135214;27;1988;-40
2023/04/07 12:30:10;;;;;;;;;;;;;;;;;;5135149;27;2075;-41
2023/04/07 12:32:38;;;;;;;;;;;;;;;;;;5135189;27;1773;-47
2023/04/07 12:35:06;;;;;;;;;;;;;;;;;;5135254;27;2003;-53
2023/04/07 12:37:34;;;;;;;;;;;;;;;;;;5135246;27;1857;-44
2023/04/07 12:40:02;;;;;;;;;;;;;;;;;;5135251;27;1774;-44
2023/04/07 12:42:29;;;;;;;;;;;;;;;;;;5135221;27;1902;-49
2023/04/07 12:44:56;;;;;;;;;;;;;;;;;;5134978;27;1958;-52
2023/04/07 12:47:24;;;;;;;;;;;;;;;;;;5116772;27;2156;-44
2023/04/07 12:49:51;;;;;;;;;;;;;;;;;;5135019;27;1786;-45
2023/04/07 12:52:18;;;;;;;;;;;;;;;;;;5134570;27;2015;-49
2023/04/07 12:54:46;;;;;;;;;;;;;;;;;;5155594;27;1564;-53
2023/04/07 12:57:13;;;;;;;;;;;;;;;;;;5138425;27;1932;-53
2023/04/07 12:59:40;;;;;;;;;;;;;;;;;;5134864;27;1761;-54
2023/04/07 13:02:07;;;;;;;;;;;;;;;;;;5134246;27;1973;-52
2023/04/07 13:04:35;;;;;;;;;;;;;;;;;;5134678;27;2070;-49
2023/04/07 13:07:02;;;;;;;;;;;;;;;;;;5142538;27;1715;-42
2023/04/07 13:09:30;;;;;;;;;;;;;;;;;;5155500;27;2071;-46
2023/04/07 13:11:57;;;;;;;;;;;;;;;;;;5155030;27;1913;-51
2023/04/07 13:14:24;;;;;;;;;;;;;;;;;;5155131;27;1681;-41
2023/04/07 13:16:51;;;;;;;;;;;;;;;;;;5154808;27;2077;-47
2023/04/07 13:19:19;;;;;;;;;;;;;;;;;;5155094;27;1546;-46
2023/04/07 13:21:46;;;;;;;;;;;;;;;;;;5154701;27;2291;-42
2023/04/07 13:24:14;;;;;;;;;;;;;;;;;;5155091;27;2184;-43
2023/04/07 13:26:41;;;;;;;;;;;;;;;;;;5155036;27;1754;-47
2023/04/07 13:29:08;;;;;;;;;;;;;;;;;;5154750;27;2183;-42
2023/04/07 13:31:35;;;;;;;;;;;;;;;;;;5155033;27;2110;-44
2023/04/07 13:34:03;;;;;;;;;;;;;;;;;;5155064;27;1848;-41
2023/04/07 13:36:30;;;;;;;;;;;;;;;;;;5155126;27;1876;-40
2023/04/07 13:38:58;;;;;;;;;;;;;;;;;;5154896;27;1408;-46
2023/04/07 13:41:28;;;;;;;;;;;;;;;;;;5154417;27;2139;-47
2023/04/07 13:43:55;;;;;;;;;;;;;;;;;;5154762;27;2120;-48
2023/04/07 13:46:22;;;;;;;;;;;;;;;;;;5154507;27;1909;-45
2023/04/07 13:48:54;;;;;;;;;;;;;;;;;;5154418;27;1744;-41
2023/04/07 13:51:21;;;;;;;;;;;;;;;;;;5154663;27;1941;-43
2023/04/07 13:53:48;;;;;;;;;;;;;;;;;;5154144;27;1966;-57
2023/04/07 13:56:16;;;;;;;;;;;;;;;;;;5145572;27;2200;-46
2023/04/07 13:58:43;;;;;;;;;;;;;;;;;;5133822;27;1942;-47
2023/04/07 14:01:10;;;;;;;;;;;;;;;;;;5133253;27;1833;-48
2023/04/07 14:03:38;;;;;;;;;;;;;;;;;;5133356;27;2034;-49
2023/04/07 14:06:05;;;;;;;;;;;;;;;;;;5133721;27;1538;-45
2023/04/07 14:08:33;;;;;;;;;;;;;;;;;;5133548;27;1910;-45
2023/04/07 14:11:00;;;;;;;;;;;;;;;;;;5133350;27;2306;-54
2023/04/07 14:13:27;;;;;;;;;;;;;;;;;;5133161;27;2043;-45
2023/04/07 14:15:54;;;;;;;;;;;;;;;;;;5133610;27;2083;-45
2023/04/07 14:18:22;;;;;;;;;;;;;;;;;;5133218;27;1924;-54
2023/04/07 14:20:49;;;;;;;;;;;;;;;;;;5133031;27;2110;-45
2023/04/07 14:23:16;;;;;;;;;;;;;;;;;;5133139;27;1914;-45
2023/04/07 14:25:56;;;;;;;;;;;;;;;;;;5133109;27;2176;-40
2023/04/07 14:28:24;;;;;;;;;;;;;;;;;;5132393;27;1925;-46
2023/04/07 14:30:51;;;;;;;;;;;;;;;;;;5132743;27;1845;-43
2023/04/07 14:33:18;;;;;;;;;;;;;;;;;;5132956;27;1460;-54
2023/04/07 14:35:46;;;;;;;;;;;;;;;;;;5132906;27;2121;-44
2023/04/07 14:38:13;;;;;;;;;;;;;;;;;;5133096;27;1492;-50
2023/04/07 14:40:40;;;;;;;;;;;;;;;;;;5133344;27;2053;-43
2023/04/07 14:43:09;;;;;;;;;;;;;;;;;;5132869;27;1918;-45
2023/04/07 14:45:36;;;;;;;;;;;;;;;;;;5133988;27;1884;-47
2023/04/07 14:48:04;;;;;;;;;;;;;;;;;;5132870;27;2203;-54
2023/04/07 14:50:32;;;;;;;;;;;;;;;;;;5132685;27;1935;-50
2023/04/07 14:53:00;;;;;;;;;;;;;;;;;;5113932;27;2380;-47
2023/04/07 14:55:29;;;;;;;;;;;;;;;;;;5132519;27;1798;-45
2023/04/07 14:57:57;;;;;;;;;;;;;;;;;;5132972;27;2114;-40
2023/04/07 15:00:26;;;;;;;;;;;;;;;;;;5132463;27;2307;-53
2023/04/07 15:02:54;;;;;;;;;;;;;;;;;;5132289;27;2194;-45
2023/04/07 15:05:21;;;;;;;;;;;;;;;;;;5132344;27;1204;-42
2023/04/07 15:07:51;;;;;;;;;;;;;;;;;;5132320;27;1787;-45
2023/04/07 15:10:19;;;;;;;;;;;;;;;;;;5132330;27;2041;-43
2023/04/07 15:12:47;;;;;;;;;;;;;;;;;;5113629;28;2382;-41
2023/04/07 15:15:15;;;;;;;;;;;;;;;;;;5132264;27;1745;-41
2023/04/07 15:17:43;;;;;;;;;;;;;;;;;;5132277;27;1471;-40
2023/04/07 15:20:11;;;;;;;;;;;;;;;;;;5132291;27;1788;-39
2023/04/07 15:22:39;;;;;;;;;;;;;;;;;;5132221;27;2009;-49
2023/04/07 15:25:07;;;;;;;;;;;;;;;;;;5132331;27;1680;-50
2023/04/07 15:27:34;;;;;;;;;;;;;;;;;;5132002;27;1945;-47
2023/04/07 15:30:02;;;;;;;;;;;;;;;;;;5131772;27;1670;-44
2023/04/07 15:32:30;;;;;;;;;;;;;;;;;;5131976;27;2046;-46
2023/04/07 15:34:58;;;;;;;;;;;;;;;;;;5132154;27;1779;-41
2023/04/07 15:37:25;;;;;;;;;;;;;;;;;;5131904;27;1717;-43
2023/04/07 15:39:52;;;;;;;;;;;;;;;;;;5131707;27;2349;-52
2023/04/07 15:42:19;;;;;;;;;;;;;;;;;;5131580;28;1931;-50
2023/04/07 15:44:47;;;;;;;;;;;;;;;;;;5131791;28;2336;-42
2023/04/07 15:47:14;;;;;;;;;;;;;;;;;;5131663;28;2091;-44
2023/04/07 15:49:41;;;;;;;;;;;;;;;;;;5131444;27;2103;-43
2023/04/07 15:52:10;;;;;;;;;;;;;;;;;;5131808;28;2051;-52
2023/04/07 15:54:37;;;;;;;;;;;;;;;;;;5131635;28;1973;-49
2023/04/07 15:57:04;;;;;;;;;;;;;;;;;;5131524;28;2077;-45
2023/04/07 15:59:32;;;;;;;;;;;;;;;;;;5131939;28;2295;-42
2023/04/07 16:01:59;;;;;;;;;;;;;;;;;;5132167;28;1979;-54
2023/04/07 16:04:26;;;;;;;;;;;;;;;;;;5132089;28;1743;-46
2023/04/07 16:06:53;;;;;;;;;;;;;;;;;;5131898;28;2189;-43
2023/04/07 16:09:20;;;;;;;;;;;;;;;;;;5131492;28;1533;-39
2023/04/07 16:11:48;;;;;;;;;;;;;;;;;;5131770;28;1829;-42
2023/04/07 16:14:15;;;;;;;;;;;;;;;;;;5131664;28;1437;-43
2023/04/07 16:16:43;;;;;;;;;;;;;;;;;;5131908;28;2006;-44
2023/04/07 16:19:10;;;;;;;;;;;;;;;;;;5131817;28;1969;-41
2023/04/07 16:21:38;;;;;;;;;;;;;;;;;;5131407;28;2123;-40
2023/04/07 16:24:05;;;;;;;;;;;;;;;;;;5131151;27;2006;-48
2023/04/07 16:26:32;;;;;;;;;;;;;;;;;;5131415;28;1482;-43
2023/04/07 16:29:00;;;;;;;;;;;;;;;;;;5131392;28;2202;-52
2023/04/07 16:31:27;;;;;;;;;;;;;;;;;;5131647;28;2287;-47
2023/04/07 16:33:54;;;;;;;;;;;;;;;;;;5131202;28;1951;-41
2023/04/07 16:36:21;;;;;;;;;;;;;;;;;;5131258;28;2068;-45
2023/04/07 16:38:49;;;;;;;;;;;;;;;;;;5131540;28;2418;-48
2023/04/07 16:41:17;;;;;;;;;;;;;;;;;;5131128;28;2241;-46
2023/04/07 16:43:44;;;;;;;;;;;;;;;;;;5131515;28;1971;-50
2023/04/07 16:46:11;;;;;;;;;;;;;;;;;;5131310;28;1919;-42
2023/04/07 16:48:39;;;;;;;;;;;;;;;;;;5131391;28;1759;-48
2023/04/07 16:51:06;;;;;;;;;;;;;;;;;;5131490;27;1377;-44
2023/04/07 16:53:33;;;;;;;;;;;;;;;;;;5134875;27;1984;-40
2023/04/07 16:56:00;;;;;;;;;;;;;;;;;;5134664;27;2142;-42
2023/04/07 16:58:30;;;;;;;;;;;;;;;;;;5135056;27;2367;-52
2023/04/07 17:00:57;;;;;;;;;;;;;;;;;;5134836;27;2034;-52
2023/04/07 17:03:24;;;;;;;;;;;;;;;;;;5134599;27;1913;-45
2023/04/07 17:05:51;;;;;;;;;;;;;;;;;;5134669;27;1791;-47
2023/04/07 17:08:18;;;;;;;;;;;;;;;;;;5134530;27;1787;-44
2023/04/07 17:10:46;;;;;;;;;;;;;;;;;;5134797;27;1837;-46
2023/04/07 17:13:13;;;;;;;;;;;;;;;;;;5134948;27;1813;-42
2023/04/07 17:15:40;;;;;;;;;;;;;;;;;;5134094;27;2112;-42